sensor_id;sensor_type;location;lat;lon;timestamp;P1;durP1;ratioP1;P2;durP2;ratioP2
45734;SDS011;31446;49.632;8.328;2024-03-02T00:12:16;23.40;;;12.77;;
45734;SDS011;31446;49.632;8.328;2024-03-02T00:27:23;20.52;;;12.32;;
45734;SDS011;31446;49.632;8.328;2024-03-02T00:42:30;23.33;;;13.02;;
45734;SDS011;31446;49.632;8.328;2024-03-02T00:57:37;21.77;;;13.93;;
45734;SDS011;31446;49.632;8.328;2024-03-02T01:12:44;33.17;;;15.27;;
45734;SDS011;31446;49.632;8.328;2024-03-02T01:27:50;24.25;;;14.05;;
45734;SDS011;31446;49.632;8.328;2024-03-02T01:42:57;28.88;;;15.05;;
45734;SDS011;31446;49.632;8.328;2024-03-02T01:58:03;33.88;;;16.00;;
45734;SDS011;31446;49.632;8.328;2024-03-02T02:13:10;31.33;;;17.77;;
45734;SDS011;31446;49.632;8.328;2024-03-02T02:28:16;34.70;;;17.95;;
45734;SDS011;31446;49.632;8.328;2024-03-02T02:43:23;36.30;;;18.08;;
45734;SDS011;31446;49.632;8.328;2024-03-02T02:58:29;31.48;;;18.20;;
45734;SDS011;31446;49.632;8.328;2024-03-02T03:13:36;31.90;;;17.90;;
45734;SDS011;31446;49.632;8.328;2024-03-02T03:28:42;36.53;;;18.77;;
45734;SDS011;31446;49.632;8.328;2024-03-02T03:43:49;35.60;;;18.58;;
45734;SDS011;31446;49.632;8.328;2024-03-02T03:58:55;32.25;;;16.08;;
45734;SDS011;31446;49.632;8.328;2024-03-02T04:14:02;35.10;;;17.63;;
45734;SDS011;31446;49.632;8.328;2024-03-02T04:29:09;39.78;;;16.13;;
45734;SDS011;31446;49.632;8.328;2024-03-02T04:44:15;29.90;;;16.63;;
45734;SDS011;31446;49.632;8.328;2024-03-02T04:59:26;33.58;;;17.05;;
45734;SDS011;31446;49.632;8.328;2024-03-02T05:14:33;28.90;;;16.55;;
45734;SDS011;31446;49.632;8.328;2024-03-02T05:29:40;34.38;;;19.25;;
45734;SDS011;31446;49.632;8.328;2024-03-02T05:44:46;46.30;;;23.08;;
45734;SDS011;31446;49.632;8.328;2024-03-02T05:59:57;34.20;;;18.20;;
45734;SDS011;31446;49.632;8.328;2024-03-02T06:15:04;29.92;;;16.58;;
45734;SDS011;31446;49.632;8.328;2024-03-02T06:30:12;28.98;;;15.85;;
45734;SDS011;31446;49.632;8.328;2024-03-02T06:45:19;29.45;;;16.63;;
45734;SDS011;31446;49.632;8.328;2024-03-02T07:00:25;32.88;;;18.73;;
45734;SDS011;31446;49.632;8.328;2024-03-02T07:15:32;32.17;;;17.38;;
45734;SDS011;31446;49.632;8.328;2024-03-02T07:31:08;27.30;;;16.95;;
45734;SDS011;31446;49.632;8.328;2024-03-02T07:46:17;23.83;;;14.05;;
45734;SDS011;31446;49.632;8.328;2024-03-02T08:01:24;21.75;;;12.00;;
45734;SDS011;31446;49.632;8.328;2024-03-02T08:16:30;22.35;;;12.68;;
45734;SDS011;31446;49.632;8.328;2024-03-02T08:31:37;17.65;;;11.32;;
45734;SDS011;31446;49.632;8.328;2024-03-02T08:46:43;21.42;;;11.07;;
45734;SDS011;31446;49.632;8.328;2024-03-02T09:01:50;12.60;;;9.35;;
45734;SDS011;31446;49.632;8.328;2024-03-02T09:16:56;18.27;;;10.63;;
45734;SDS011;31446;49.632;8.328;2024-03-02T09:32:03;18.70;;;9.55;;
45734;SDS011;31446;49.632;8.328;2024-03-02T09:47:10;13.77;;;9.05;;
45734;SDS011;31446;49.632;8.328;2024-03-02T10:02:17;17.55;;;9.30;;
45734;SDS011;31446;49.632;8.328;2024-03-02T10:17:24;13.88;;;8.13;;
45734;SDS011;31446;49.632;8.328;2024-03-02T10:32:37;11.95;;;7.50;;
45734;SDS011;31446;49.632;8.328;2024-03-02T10:47:44;9.70;;;6.40;;
45734;SDS011;31446;49.632;8.328;2024-03-02T11:02:55;10.85;;;6.63;;
45734;SDS011;31446;49.632;8.328;2024-03-02T11:18:08;9.40;;;5.78;;
45734;SDS011;31446;49.632;8.328;2024-03-02T11:33:25;11.27;;;7.28;;
45734;SDS011;31446;49.632;8.328;2024-03-02T11:48:33;8.00;;;4.20;;
45734;SDS011;31446;49.632;8.328;2024-03-02T12:03:42;5.88;;;3.75;;
45734;SDS011;31446;49.632;8.328;2024-03-02T12:18:49;6.40;;;4.18;;
45734;SDS011;31446;49.632;8.328;2024-03-02T12:33:55;5.68;;;3.28;;
45734;SDS011;31446;49.632;8.328;2024-03-02T12:49:10;3.83;;;2.92;;
45734;SDS011;31446;49.632;8.328;2024-03-02T13:04:21;1.40;;;1.30;;
45734;SDS011;31446;49.632;8.328;2024-03-02T13:19:28;2.33;;;1.48;;
45734;SDS011;31446;49.632;8.328;2024-03-02T13:34:35;1.77;;;1.50;;
45734;SDS011;31446;49.632;8.328;2024-03-02T13:49:42;0.95;;;0.70;;
45734;SDS011;31446;49.632;8.328;2024-03-02T14:04:51;2.03;;;1.13;;
45734;SDS011;31446;49.632;8.328;2024-03-02T14:19:58;3.30;;;1.00;;
45734;SDS011;31446;49.632;8.328;2024-03-02T14:35:06;2.42;;;0.75;;
45734;SDS011;31446;49.632;8.328;2024-03-02T14:50:15;0.43;;;0.43;;
45734;SDS011;31446;49.632;8.328;2024-03-02T15:05:22;1.98;;;1.10;;
45734;SDS011;31446;49.632;8.328;2024-03-02T15:20:29;3.00;;;1.10;;
45734;SDS011;31446;49.632;8.328;2024-03-02T15:35:36;7.45;;;3.67;;
45734;SDS011;31446;49.632;8.328;2024-03-02T15:50:43;2.45;;;1.90;;
45734;SDS011;31446;49.632;8.328;2024-03-02T16:05:49;6.78;;;3.10;;
45734;SDS011;31446;49.632;8.328;2024-03-02T16:20:56;12.82;;;6.35;;
45734;SDS011;31446;49.632;8.328;2024-03-02T16:36:02;12.27;;;5.97;;
45734;SDS011;31446;49.632;8.328;2024-03-02T16:51:10;5.57;;;3.70;;
45734;SDS011;31446;49.632;8.328;2024-03-02T17:06:16;12.82;;;5.32;;
45734;SDS011;31446;49.632;8.328;2024-03-02T17:21:23;5.18;;;3.88;;
45734;SDS011;31446;49.632;8.328;2024-03-02T17:36:29;7.97;;;3.30;;
45734;SDS011;31446;49.632;8.328;2024-03-02T17:51:36;8.10;;;3.58;;
45734;SDS011;31446;49.632;8.328;2024-03-02T18:06:42;7.20;;;2.70;;
45734;SDS011;31446;49.632;8.328;2024-03-02T18:21:52;13.00;;;5.28;;
45734;SDS011;31446;49.632;8.328;2024-03-02T18:36:59;4.97;;;2.70;;
45734;SDS011;31446;49.632;8.328;2024-03-02T18:52:05;7.00;;;2.30;;
45734;SDS011;31446;49.632;8.328;2024-03-02T19:07:12;6.28;;;3.17;;
45734;SDS011;31446;49.632;8.328;2024-03-02T19:22:18;4.80;;;2.42;;
45734;SDS011;31446;49.632;8.328;2024-03-02T19:37:27;5.28;;;2.78;;
45734;SDS011;31446;49.632;8.328;2024-03-02T19:52:33;6.53;;;3.75;;
45734;SDS011;31446;49.632;8.328;2024-03-02T20:07:40;4.15;;;3.13;;
45734;SDS011;31446;49.632;8.328;2024-03-02T20:22:47;7.95;;;3.67;;
45734;SDS011;31446;49.632;8.328;2024-03-02T20:37:54;6.03;;;3.42;;
45734;SDS011;31446;49.632;8.328;2024-03-02T20:53:01;4.97;;;3.55;;
45734;SDS011;31446;49.632;8.328;2024-03-02T21:08:09;5.97;;;3.85;;
45734;SDS011;31446;49.632;8.328;2024-03-02T21:23:15;9.00;;;4.40;;
45734;SDS011;31446;49.632;8.328;2024-03-02T21:38:22;13.45;;;5.38;;
45734;SDS011;31446;49.632;8.328;2024-03-02T22:08:32;20.85;;;9.23;;
45734;SDS011;31446;49.632;8.328;2024-03-02T22:23:39;15.77;;;7.63;;
45734;SDS011;31446;49.632;8.328;2024-03-02T22:38:45;14.70;;;8.70;;
45734;SDS011;31446;49.632;8.328;2024-03-02T22:53:52;15.35;;;8.55;;
45734;SDS011;31446;49.632;8.328;2024-03-02T23:08:58;58.85;;;26.48;;
45734;SDS011;31446;49.632;8.328;2024-03-02T23:24:06;16.33;;;9.27;;
45734;SDS011;31446;49.632;8.328;2024-03-02T23:39:13;16.10;;;9.65;;
45734;SDS011;31446;49.632;8.328;2024-03-02T23:54:39;13.57;;;8.55;;
